Time;durP1;ratioP1;P1;durP2;ratioP2;P2;SDS_P1;SDS_P2;PMS_P1;PMS_P2;Temp;Humidity;BMP_temperature;BMP_pressure;BME280_temperature;BME280_humidity;BME280_pressure;Samples;Min_cycle;Max_cycle;Signal;HPM_P1;HPM_P2
2022/11/17 00:04:13;;;;;;;2.60;0.80;;;;;;;;;;10235037;28;20282;-83
2022/11/17 00:09:18;;;;;;;2.95;1.45;;;;;;;;;;10211010;28;20047;-83
2022/11/17 00:14:35;;;;;;;1.88;1.15;;;;;;;;;;10214942;28;20748;-84
2022/11/17 00:25:01;;;;;;;1.52;1.02;;;;;;;;;;10206843;28;20043;-83
2022/11/17 00:30:05;;;;;;;6.72;1.63;;;;;;;;;;10214002;28;20047;-83
2022/11/17 00:35:09;;;;;;;3.53;1.33;;;;;;;;;;10221763;28;20042;-83
2022/11/17 00:40:14;;;;;;;4.70;1.67;;;;;;;;;;10212955;28;20641;-83
2022/11/17 00:45:18;;;;;;;3.75;1.58;;;;;;;;;;10216874;28;20046;-83
2022/11/17 00:50:23;;;;;;;1.45;0.80;;;;;;;;;;10220750;28;20428;-83
2022/11/17 00:55:27;;;;;;;2.80;1.15;;;;;;;;;;10223369;28;20182;-83
2022/11/17 01:00:31;;;;;;;1.63;1.00;;;;;;;;;;10213500;28;20061;-83
2022/11/17 01:05:35;;;;;;;1.10;0.80;;;;;;;;;;10219005;28;20460;-84
2022/11/17 01:10:39;;;;;;;2.88;1.00;;;;;;;;;;10213105;28;20531;-84
2022/11/17 01:15:43;;;;;;;4.43;1.95;;;;;;;;;;10213616;28;20055;-84
2022/11/17 01:20:46;;;;;;;2.78;1.17;;;;;;;;;;10214695;28;20047;-83
2022/11/17 01:25:51;;;;;;;3.50;1.13;;;;;;;;;;10237419;28;20066;-83
2022/11/17 01:31:00;;;;;;;2.67;1.13;;;;;;;;;;10204139;28;20051;-83
2022/11/17 01:36:05;;;;;;;2.45;1.45;;;;;;;;;;10213091;28;20048;-84
2022/11/17 01:41:22;;;;;;;3.50;1.20;;;;;;;;;;10238281;28;20681;-83
2022/11/17 01:46:29;;;;;;;2.95;1.10;;;;;;;;;;10229841;28;20055;-84
2022/11/17 01:51:35;;;;;;;2.03;1.30;;;;;;;;;;10216492;28;20299;-83
2022/11/17 01:56:43;;;;;;;3.80;1.50;;;;;;;;;;10209595;28;20562;-83
2022/11/17 02:01:55;;;;;;;4.45;1.13;;;;;;;;;;10209735;28;20051;-83
2022/11/17 02:07:03;;;;;;;1.85;1.50;;;;;;;;;;10208771;28;20452;-83
2022/11/17 02:12:10;;;;;;;2.17;1.10;;;;;;;;;;10222722;28;20051;-83
2022/11/17 02:17:13;;;;;;;2.90;1.33;;;;;;;;;;10215384;28;20054;-84
2022/11/17 02:22:35;;;;;;;2.40;1.00;;;;;;;;;;10220844;28;20051;-83
2022/11/17 02:27:52;;;;;;;2.38;1.40;;;;;;;;;;10224755;29;20523;-84
2022/11/17 02:33:01;;;;;;;1.60;0.80;;;;;;;;;;10209538;29;20078;-84
2022/11/17 02:38:14;;;;;;;2.05;1.20;;;;;;;;;;10223452;28;20051;-84
2022/11/17 02:48:45;;;;;;;3.13;1.27;;;;;;;;;;10227637;29;20082;-84
2022/11/17 02:53:50;;;;;;;3.22;1.35;;;;;;;;;;10226603;29;20050;-83
2022/11/17 02:58:59;;;;;;;3.13;1.40;;;;;;;;;;10202650;29;20431;-84
2022/11/17 03:04:21;;;;;;;3.75;1.40;;;;;;;;;;10223028;29;20526;-84
2022/11/17 03:09:41;;;;;;;1.35;1.00;;;;;;;;;;10242071;29;20047;-83
2022/11/17 03:14:55;;;;;;;1.88;1.30;;;;;;;;;;10222475;29;20504;-84
2022/11/17 03:20:04;;;;;;;2.10;1.15;;;;;;;;;;10223394;29;20047;-84
2022/11/17 03:25:13;;;;;;;1.55;1.10;;;;;;;;;;10249629;29;20043;-84
2022/11/17 03:30:19;;;;;;;4.68;1.75;;;;;;;;;;10241361;29;20047;-84
2022/11/17 03:35:24;;;;;;;;;;;;;;;;;;10243503;29;20322;-82
2022/11/17 03:40:30;;;;;;;1.45;0.90;;;;;;;;;;10229339;29;20302;-83
2022/11/17 03:45:38;;;;;;;1.40;1.00;;;;;;;;;;10228336;29;20048;-84
2022/11/17 03:50:45;;;;;;;1.70;1.23;;;;;;;;;;10244065;28;20504;-83
2022/11/17 03:55:57;;;;;;;3.45;2.00;;;;;;;;;;10231279;28;20353;-84
2022/11/17 04:01:03;;;;;;;2.25;1.45;;;;;;;;;;10253406;28;20058;-84
2022/11/17 04:06:07;;;;;;;2.85;1.80;;;;;;;;;;10227753;29;20515;-84
2022/11/17 04:16:33;;;;;;;2.35;1.40;;;;;;;;;;10220593;29;20051;-84
2022/11/17 04:21:36;;;;;;;3.65;1.60;;;;;;;;;;10240105;29;20055;-84
2022/11/17 04:32:02;;;;;;;2.03;0.90;;;;;;;;;;10237960;29;20056;-84
2022/11/17 04:37:16;;;;;;;2.53;1.10;;;;;;;;;;10224708;29;20059;-84
2022/11/17 04:42:19;;;;;;;2.30;1.00;;;;;;;;;;10223910;29;20047;-83
2022/11/17 04:47:24;;;;;;;2.40;1.35;;;;;;;;;;10220069;29;20051;-83
2022/11/17 04:52:27;;;;;;;1.98;1.20;;;;;;;;;;10223796;29;20055;-83
2022/11/17 04:57:32;;;;;;;1.48;0.98;;;;;;;;;;10223593;29;20043;-84
2022/11/17 05:02:36;;;;;;;6.15;2.55;;;;;;;;;;10225872;28;20047;-84
2022/11/17 05:07:40;;;;;;;2.72;1.30;;;;;;;;;;10221683;29;20094;-84
2022/11/17 05:18:05;;;;;;;1.83;0.90;;;;;;;;;;10226256;28;20054;-83
2022/11/17 05:28:31;;;;;;;1.58;0.90;;;;;;;;;;10204456;29;20110;-82
2022/11/17 05:33:37;;;;;;;1.58;0.82;;;;;;;;;;10211020;29;20051;-82
2022/11/17 05:38:40;;;;;;;2.40;0.93;;;;;;;;;;10218584;29;20047;-83
2022/11/17 05:43:44;;;;;;;1.33;0.73;;;;;;;;;;10213525;28;20503;-81
2022/11/17 05:48:50;;;;;;;1.35;0.80;;;;;;;;;;10212483;29;20199;-82
2022/11/17 05:53:53;;;;;;;1.53;0.83;;;;;;;;;;10207412;29;20044;-84
2022/11/17 05:59:02;;;;;;;1.02;0.70;;;;;;;;;;10211525;29;21021;-84
2022/11/17 06:04:08;;;;;;;0.98;0.63;;;;;;;;;;10226327;29;20047;-84
2022/11/17 06:09:12;;;;;;;1.02;0.80;;;;;;;;;;10209906;29;20073;-84
2022/11/17 06:14:15;;;;;;;1.58;1.30;;;;;;;;;;10212543;28;20051;-84
2022/11/17 06:19:24;;;;;;;1.17;0.60;;;;;;;;;;10222409;29;20499;-84
2022/11/17 06:24:28;;;;;;;0.93;0.30;;;;;;;;;;10220642;29;20538;-85
2022/11/17 06:29:32;;;;;;;0.40;0.40;;;;;;;;;;10226037;29;20043;-87
2022/11/17 06:34:36;;;;;;;0.55;0.40;;;;;;;;;;10217241;29;20047;-87
2022/11/17 06:39:40;;;;;;;1.83;0.52;;;;;;;;;;10212139;29;20661;-85
2022/11/17 06:44:43;;;;;;;0.82;0.50;;;;;;;;;;10210753;28;20051;-85
2022/11/17 06:49:48;;;;;;;1.33;0.60;;;;;;;;;;10228841;29;20047;-86
2022/11/17 06:54:51;;;;;;;3.47;1.85;;;;;;;;;;10212022;29;20058;-85
2022/11/17 06:59:55;;;;;;;1.33;0.80;;;;;;;;;;10228857;29;20047;-86
2022/11/17 07:04:59;;;;;;;1.20;0.73;;;;;;;;;;10210019;29;20047;-85
2022/11/17 07:10:03;;;;;;;0.70;0.52;;;;;;;;;;10210930;29;20043;-84
2022/11/17 07:15:07;;;;;;;4.95;2.05;;;;;;;;;;10226987;29;20064;-85
2022/11/17 07:20:13;;;;;;;2.40;1.42;;;;;;;;;;10212606;29;20055;-87
2022/11/17 07:25:16;;;;;;;1.90;0.95;;;;;;;;;;10217707;28;20055;-88
2022/11/17 07:30:23;;;;;;;1.13;0.68;;;;;;;;;;10213034;29;20057;-87
2022/11/17 07:35:28;;;;;;;2.70;0.90;;;;;;;;;;10232530;29;20062;-87
2022/11/17 07:40:32;;;;;;;2.33;0.70;;;;;;;;;;10214000;29;20448;-87
2022/11/17 07:45:36;;;;;;;1.20;0.68;;;;;;;;;;10213901;29;20050;-86
2022/11/17 07:50:41;;;;;;;3.58;0.90;;;;;;;;;;10229220;29;20044;-86
2022/11/17 07:55:44;;;;;;;2.17;0.77;;;;;;;;;;10228170;29;20130;-88
2022/11/17 08:00:48;;;;;;;2.80;0.60;;;;;;;;;;10212198;29;20142;-86
2022/11/17 08:05:53;;;;;;;3.65;0.90;;;;;;;;;;10204200;29;20043;-87
2022/11/17 08:10:56;;;;;;;4.32;1.70;;;;;;;;;;10220687;29;20146;-87
2022/11/17 08:16:00;;;;;;;4.18;1.30;;;;;;;;;;10232161;29;20362;-86
2022/11/17 08:21:06;;;;;;;1.65;0.80;;;;;;;;;;10212781;28;20047;-87
2022/11/17 08:26:11;;;;;;;1.30;0.50;;;;;;;;;;10213849;29;20054;-86
2022/11/17 08:31:14;;;;;;;1.80;0.50;;;;;;;;;;10208953;29;20134;-87
2022/11/17 08:36:19;;;;;;;1.25;0.47;;;;;;;;;;10201697;28;20168;-87
2022/11/17 08:41:24;;;;;;;2.60;0.70;;;;;;;;;;10226764;29;20110;-87
2022/11/17 08:46:28;;;;;;;3.25;0.90;;;;;;;;;;10223784;28;20047;-85
2022/11/17 08:51:32;;;;;;;3.35;0.93;;;;;;;;;;10207546;29;20058;-86
2022/11/17 08:56:36;;;;;;;3.75;0.90;;;;;;;;;;10206295;29;20043;-85
2022/11/17 09:01:40;;;;;;;2.30;0.80;;;;;;;;;;10223738;29;20057;-86
2022/11/17 09:06:45;;;;;;;2.33;0.60;;;;;;;;;;10217162;29;20066;-86
2022/11/17 09:11:48;;;;;;;4.00;0.70;;;;;;;;;;10208761;29;20098;-86
2022/11/17 09:16:52;;;;;;;2.75;0.90;;;;;;;;;;10190959;29;20039;-85
2022/11/17 09:21:58;;;;;;;2.50;0.60;;;;;;;;;;10206679;29;20055;-86
2022/11/17 09:27:02;;;;;;;1.03;0.50;;;;;;;;;;10209277;29;20043;-85
2022/11/17 09:32:06;;;;;;;2.45;0.60;;;;;;;;;;10209414;29;20047;-85
2022/11/17 09:37:12;;;;;;;1.80;0.47;;;;;;;;;;10210441;29;20432;-85
2022/11/17 09:42:18;;;;;;;1.83;0.68;;;;;;;;;;10207215;29;20043;-85
2022/11/17 09:47:29;;;;;;;1.20;0.57;;;;;;;;;;10207645;28;20454;-85
2022/11/17 09:52:39;;;;;;;2.35;0.60;;;;;;;;;;10206853;29;20043;-86
2022/11/17 09:57:45;;;;;;;1.63;0.60;;;;;;;;;;10207962;29;20086;-86
2022/11/17 10:02:50;;;;;;;1.30;0.57;;;;;;;;;;10220376;29;20539;-85
2022/11/17 10:07:59;;;;;;;3.00;0.57;;;;;;;;;;10202096;29;20044;-85
2022/11/17 10:13:06;;;;;;;2.00;0.60;;;;;;;;;;10221396;28;20053;-86
2022/11/17 10:18:12;;;;;;;;;;;;;;;;;;10213984;29;20136;-86
2022/11/17 10:23:19;;;;;;;3.25;0.60;;;;;;;;;;10228367;28;19926;-86
2022/11/17 10:28:27;;;;;;;5.70;0.85;;;;;;;;;;10213163;29;20049;-86
2022/11/17 10:33:37;;;;;;;2.70;0.68;;;;;;;;;;10217194;28;20062;-87
2022/11/17 10:38:46;;;;;;;2.45;0.68;;;;;;;;;;10206945;29;20053;-85
2022/11/17 10:43:57;;;;;;;3.78;1.00;;;;;;;;;;10213696;28;20053;-86
2022/11/17 10:49:03;;;;;;;3.00;0.80;;;;;;;;;;10193601;29;20118;-85
2022/11/17 10:54:22;;;;;;;4.53;0.65;;;;;;;;;;10206188;29;20077;-86
2022/11/17 10:59:30;;;;;;;6.53;1.15;;;;;;;;;;10206320;28;20049;-85
2022/11/17 11:04:35;;;;;;;5.53;1.00;;;;;;;;;;10223992;29;20039;-86
2022/11/17 11:09:46;;;;;;;3.00;0.73;;;;;;;;;;10210222;29;20599;-85
2022/11/17 11:14:53;;;;;;;5.78;1.23;;;;;;;;;;10212002;29;20515;-85
2022/11/17 11:19:58;;;;;;;6.90;1.23;;;;;;;;;;10212706;29;20055;-85
2022/11/17 11:25:26;;;;;;;2.33;0.85;;;;;;;;;;10208508;29;20062;-85
2022/11/17 11:30:31;;;;;;;1.77;0.75;;;;;;;;;;10208506;29;20574;-85
2022/11/17 11:35:52;;;;;;;3.60;1.10;;;;;;;;;;10201406;29;20040;-85
2022/11/17 11:41:09;;;;;;;3.05;1.15;;;;;;;;;;10209262;29;20051;-86
2022/11/17 11:46:18;;;;;;;2.17;0.80;;;;;;;;;;10186119;29;20051;-86
2022/11/17 11:51:25;;;;;;;4.38;1.08;;;;;;;;;;10199508;29;20050;-86
2022/11/17 11:56:33;;;;;;;4.93;1.15;;;;;;;;;;10202157;29;20610;-85
2022/11/17 12:01:44;;;;;;;5.32;0.98;;;;;;;;;;10210295;29;20511;-86
2022/11/17 12:06:58;;;;;;;3.00;0.77;;;;;;;;;;10226974;29;20079;-86
2022/11/17 12:12:09;;;;;;;4.30;0.93;;;;;;;;;;10233247;28;20051;-85
2022/11/17 12:17:22;;;;;;;2.03;0.80;;;;;;;;;;10211069;28;20053;-85
2022/11/17 12:23:07;;;;;;;3.58;1.05;;;;;;;;;;10218598;29;20079;-85
2022/11/17 12:28:31;;;;;;;3.08;0.88;;;;;;;;;;10171798;28;20045;-86
2022/11/17 12:34:07;;;;;;;3.45;0.75;;;;;;;;;;10219115;29;20070;-85
2022/11/17 12:39:43;;;;;;;3.22;1.02;;;;;;;;;;10205282;29;20044;-86
2022/11/17 12:44:57;;;;;;;3.45;0.90;;;;;;;;;;10213756;29;20053;-85
2022/11/17 12:50:55;;;;;;;4.07;0.80;;;;;;;;;;10223290;28;20089;-85
2022/11/17 12:56:26;;;;;;;4.70;0.90;;;;;;;;;;10102440;29;20053;-84
2022/11/17 13:01:40;;;;;;;2.38;0.68;;;;;;;;;;10183781;28;20094;-85
2022/11/17 13:06:59;;;;;;;2.63;1.00;;;;;;;;;;10213014;28;20073;-84
2022/11/17 13:12:05;;;;;;;2.40;0.77;;;;;;;;;;10213678;28;20077;-85
2022/11/17 13:17:12;;;;;;;4.63;0.80;;;;;;;;;;10238701;28;20130;-85
2022/11/17 13:22:17;;;;;;;1.50;0.60;;;;;;;;;;10206073;28;20059;-82
2022/11/17 13:27:23;;;;;;;1.20;0.60;;;;;;;;;;10203410;29;20078;-85
2022/11/17 13:32:28;;;;;;;;;;;;;;;;;;10202394;29;20047;-87
2022/11/17 13:37:31;;;;;;;4.22;1.00;;;;;;;;;;10235066;28;19926;-86
2022/11/17 13:42:36;;;;;;;1.85;0.52;;;;;;;;;;10237678;28;20054;-86
2022/11/17 13:47:45;;;;;;;3.65;1.08;;;;;;;;;;10207576;29;20515;-85
2022/11/17 13:52:53;;;;;;;1.52;0.60;;;;;;;;;;10219401;29;20051;-84
2022/11/17 13:57:59;;;;;;;3.55;1.10;;;;;;;;;;10202568;29;20719;-85
2022/11/17 14:03:25;;;;;;;1.63;0.50;;;;;;;;;;10198299;29;20771;-84
2022/11/17 14:08:30;;;;;;;;;;;;;;;;;;10203022;29;20058;-85
2022/11/17 14:13:38;;;;;;;2.17;0.50;;;;;;;;;;10203687;29;19922;-85
2022/11/17 14:18:43;;;;;;;3.15;1.00;;;;;;;;;;10203824;29;20044;-85
2022/11/17 14:23:46;;;;;;;3.78;0.80;;;;;;;;;;10203696;29;20050;-84
2022/11/17 14:28:55;;;;;;;2.95;0.90;;;;;;;;;;10205683;29;20416;-86
2022/11/17 14:34:00;;;;;;;2.72;0.70;;;;;;;;;;10210542;28;20094;-85
2022/11/17 14:39:09;;;;;;;3.50;0.70;;;;;;;;;;10224711;29;20044;-86
2022/11/17 14:44:13;;;;;;;1.55;0.45;;;;;;;;;;10208258;29;20043;-85
2022/11/17 14:49:20;;;;;;;4.33;1.27;;;;;;;;;;10220404;29;20050;-85
2022/11/17 14:54:23;;;;;;;3.35;1.00;;;;;;;;;;10207276;29;20138;-84
2022/11/17 14:59:30;;;;;;;2.70;0.70;;;;;;;;;;10213166;29;20048;-85
2022/11/17 15:04:41;;;;;;;1.20;0.32;;;;;;;;;;10212542;29;20531;-85
2022/11/17 15:09:52;;;;;;;0.82;0.40;;;;;;;;;;10205736;29;20043;-85
2022/11/17 15:14:59;;;;;;;3.33;0.40;;;;;;;;;;10213243;28;20059;-86
2022/11/17 15:20:04;;;;;;;1.17;0.40;;;;;;;;;;10219252;29;20071;-87
2022/11/17 15:25:11;;;;;;;0.88;0.20;;;;;;;;;;10218001;28;20043;-86
2022/11/17 15:30:15;;;;;;;0.77;0.30;;;;;;;;;;10200090;29;20189;-87
2022/11/17 15:35:27;;;;;;;0.50;0.23;;;;;;;;;;10213967;29;20059;-87
2022/11/17 15:40:31;;;;;;;0.75;0.20;;;;;;;;;;10227540;28;20669;-87
2022/11/17 15:45:34;;;;;;;0.47;0.43;;;;;;;;;;10241192;28;20545;-86
2022/11/17 15:50:39;;;;;;;0.20;0.20;;;;;;;;;;10209796;29;20224;-86
2022/11/17 15:55:42;;;;;;;0.68;0.30;;;;;;;;;;10206489;29;20055;-86
2022/11/17 16:00:46;;;;;;;0.20;0.20;;;;;;;;;;10210155;29;20098;-85
2022/11/17 16:05:51;;;;;;;0.20;0.20;;;;;;;;;;10230704;28;20109;-85
2022/11/17 16:10:54;;;;;;;0.40;0.30;;;;;;;;;;10209170;29;20058;-84
2022/11/17 16:15:58;;;;;;;0.20;0.20;;;;;;;;;;10202549;29;20137;-85
2022/11/17 16:21:07;;;;;;;0.20;0.20;;;;;;;;;;10220665;29;20063;-83
2022/11/17 16:26:13;;;;;;;0.38;0.30;;;;;;;;;;10203321;29;20051;-85
2022/11/17 16:31:18;;;;;;;0.55;0.30;;;;;;;;;;10208014;29;20078;-84
2022/11/17 16:36:25;;;;;;;0.47;0.30;;;;;;;;;;10218034;29;20055;-86
2022/11/17 16:41:32;;;;;;;0.32;0.22;;;;;;;;;;10200789;29;20051;-85
2022/11/17 16:46:36;;;;;;;0.70;0.30;;;;;;;;;;10200809;29;20047;-86
2022/11/17 16:51:45;;;;;;;0.30;0.30;;;;;;;;;;10199917;29;20051;-86
2022/11/17 16:56:49;;;;;;;0.40;0.20;;;;;;;;;;10199782;28;20098;-85
2022/11/17 17:01:52;;;;;;;0.30;0.20;;;;;;;;;;10201678;29;20447;-84
2022/11/17 17:06:57;;;;;;;0.70;0.45;;;;;;;;;;10182610;29;20050;-85
2022/11/17 17:12:03;;;;;;;2.78;1.60;;;;;;;;;;10215103;28;20061;-85
2022/11/17 17:17:06;;;;;;;1.63;0.70;;;;;;;;;;10213980;28;20047;-84
2022/11/17 17:22:11;;;;;;;0.98;0.82;;;;;;;;;;10217822;28;20054;-85
2022/11/17 17:27:15;;;;;;;1.58;0.63;;;;;;;;;;10205440;29;20066;-84
2022/11/17 17:32:19;;;;;;;2.08;1.02;;;;;;;;;;10196147;28;20131;-84
2022/11/17 17:37:23;;;;;;;2.60;1.73;;;;;;;;;;10192616;29;20051;-85
2022/11/17 17:42:27;;;;;;;2.35;1.40;;;;;;;;;;10195521;29;20138;-85
2022/11/17 17:47:30;;;;;;;2.47;1.60;;;;;;;;;;10204631;29;20518;-85
2022/11/17 17:52:35;;;;;;;2.75;1.45;;;;;;;;;;10203592;29;20051;-85
2022/11/17 17:57:39;;;;;;;2.00;1.40;;;;;;;;;;10202777;29;20694;-85
2022/11/17 18:02:43;;;;;;;3.20;1.80;;;;;;;;;;10197018;29;20511;-84
2022/11/17 18:07:48;;;;;;;7.40;4.53;;;;;;;;;;10218061;29;20063;-84
2022/11/17 18:12:51;;;;;;;9.45;4.75;;;;;;;;;;10220135;28;20051;-84
2022/11/17 18:17:55;;;;;;;9.00;5.07;;;;;;;;;;10203223;29;20143;-85
2022/11/17 18:23:00;;;;;;;10.32;4.82;;;;;;;;;;10207523;28;20047;-85
2022/11/17 18:28:04;;;;;;;7.90;5.10;;;;;;;;;;10201264;29;20595;-84
2022/11/17 18:33:07;;;;;;;7.70;4.22;;;;;;;;;;10195878;29;20043;-84
2022/11/17 18:38:12;;;;;;;8.65;4.18;;;;;;;;;;10200335;29;20562;-84
2022/11/17 18:43:15;;;;;;;6.82;4.55;;;;;;;;;;10200061;29;20065;-84
2022/11/17 18:48:19;;;;;;;9.88;4.78;;;;;;;;;;10205289;28;20050;-85
2022/11/17 18:53:23;;;;;;;9.45;5.95;;;;;;;;;;10234335;28;20102;-84
2022/11/17 18:58:27;;;;;;;9.30;5.18;;;;;;;;;;10220916;28;20051;-85
2022/11/17 19:03:31;;;;;;;8.00;4.82;;;;;;;;;;10234369;28;20051;-85
2022/11/17 19:08:36;;;;;;;7.38;4.28;;;;;;;;;;10239260;28;20047;-85
2022/11/17 19:13:41;;;;;;;7.57;4.10;;;;;;;;;;10237852;28;20078;-85
2022/11/17 19:18:46;;;;;;;7.93;4.85;;;;;;;;;;10239224;28;20048;-84
2022/11/17 19:23:51;;;;;;;7.10;3.35;;;;;;;;;;10227138;29;20081;-85
2022/11/17 19:28:58;;;;;;;5.38;2.70;;;;;;;;;;10229340;28;20066;-83
2022/11/17 19:34:01;;;;;;;4.60;2.20;;;;;;;;;;10221645;28;20039;-84
2022/11/17 19:39:06;;;;;;;4.22;1.95;;;;;;;;;;10235408;28;20042;-84
2022/11/17 19:44:10;;;;;;;5.18;1.83;;;;;;;;;;10229614;28;20045;-84
2022/11/17 19:49:13;;;;;;;2.85;1.27;;;;;;;;;;10227596;28;20118;-85
2022/11/17 19:54:18;;;;;;;2.17;0.90;;;;;;;;;;10236276;28;20051;-84
2022/11/17 19:59:22;;;;;;;2.83;1.10;;;;;;;;;;10234030;28;20058;-83
2022/11/17 20:04:25;;;;;;;2.45;1.30;;;;;;;;;;10223546;28;20063;-84
2022/11/17 20:09:30;;;;;;;1.58;0.75;;;;;;;;;;10242321;28;20485;-84
2022/11/17 20:14:33;;;;;;;2.78;1.10;;;;;;;;;;10225739;28;20047;-87
2022/11/17 20:19:37;;;;;;;3.35;1.33;;;;;;;;;;10217218;28;20428;-85
2022/11/17 20:24:41;;;;;;;3.00;1.10;;;;;;;;;;10219743;29;20050;-85
2022/11/17 20:29:45;;;;;;;2.95;1.92;;;;;;;;;;10220455;28;20411;-84
2022/11/17 20:34:48;;;;;;;2.85;1.65;;;;;;;;;;10217841;28;20043;-83
2022/11/17 20:39:53;;;;;;;5.05;1.67;;;;;;;;;;10198629;29;20043;-84
2022/11/17 20:44:56;;;;;;;3.25;1.88;;;;;;;;;;10218263;29;20602;-84
2022/11/17 20:50:00;;;;;;;2.58;1.80;;;;;;;;;;10219398;29;20098;-83
2022/11/17 20:55:05;;;;;;;3.20;1.80;;;;;;;;;;10201216;29;20407;-83
2022/11/17 21:00:10;;;;;;;3.10;1.50;;;;;;;;;;10205047;29;20064;-84
2022/11/17 21:05:13;;;;;;;15.45;6.70;;;;;;;;;;10204664;28;20050;-84
2022/11/17 21:10:18;;;;;;;16.73;7.75;;;;;;;;;;10209730;28;20059;-83
2022/11/17 21:15:22;;;;;;;7.75;3.00;;;;;;;;;;10196499;29;20154;-82
2022/11/17 21:20:27;;;;;;;2.88;1.40;;;;;;;;;;10199930;29;20053;-82
2022/11/17 21:25:34;;;;;;;2.25;0.90;;;;;;;;;;10205188;29;20154;-82
2022/11/17 21:30:38;;;;;;;1.33;0.77;;;;;;;;;;10202993;29;20102;-83
2022/11/17 21:35:41;;;;;;;1.00;0.73;;;;;;;;;;10219774;29;20054;-81
2022/11/17 21:40:46;;;;;;;1.02;0.65;;;;;;;;;;10194944;29;20055;-82
2022/11/17 21:45:50;;;;;;;1.48;0.65;;;;;;;;;;10188481;29;20055;-82
2022/11/17 21:50:53;;;;;;;1.27;0.70;;;;;;;;;;10196576;29;20055;-82
2022/11/17 21:56:02;;;;;;;2.25;0.98;;;;;;;;;;10189560;29;20356;-82
2022/11/17 22:01:09;;;;;;;1.52;0.73;;;;;;;;;;10221004;29;20050;-81
2022/11/17 22:06:14;;;;;;;0.80;0.70;;;;;;;;;;10196172;29;20503;-82
2022/11/17 22:11:33;;;;;;;1.10;0.52;;;;;;;;;;10197015;29;20516;-82
2022/11/17 22:16:39;;;;;;;1.58;0.60;;;;;;;;;;10201462;29;20047;-82
2022/11/17 22:21:43;;;;;;;1.88;0.60;;;;;;;;;;10217128;29;20393;-82
2022/11/17 22:26:50;;;;;;;0.45;0.40;;;;;;;;;;10217360;29;20150;-82
2022/11/17 22:31:53;;;;;;;1.50;0.50;;;;;;;;;;10220037;29;20051;-81
2022/11/17 22:36:57;;;;;;;1.17;0.50;;;;;;;;;;10204354;29;20153;-82
2022/11/17 22:42:01;;;;;;;1.42;0.50;;;;;;;;;;10204801;29;20538;-82
2022/11/17 22:47:05;;;;;;;1.50;0.52;;;;;;;;;;10200930;29;20055;-81
2022/11/17 22:52:10;;;;;;;1.27;0.70;;;;;;;;;;10201271;29;20713;-82
2022/11/17 22:57:15;;;;;;;0.63;0.50;;;;;;;;;;10197236;29;20035;-82
2022/11/17 23:02:19;;;;;;;1.10;0.50;;;;;;;;;;10208026;29;20058;-82
2022/11/17 23:07:22;;;;;;;0.50;0.50;;;;;;;;;;10209115;29;20043;-81
2022/11/17 23:12:27;;;;;;;0.43;0.40;;;;;;;;;;10204483;29;20760;-81
2022/11/17 23:17:30;;;;;;;2.08;0.60;;;;;;;;;;10208686;29;20454;-81
2022/11/17 23:22:34;;;;;;;1.17;1.00;;;;;;;;;;10209282;29;20254;-82
2022/11/17 23:27:39;;;;;;;2.13;1.35;;;;;;;;;;10208035;29;20051;-82
2022/11/17 23:32:42;;;;;;;2.08;1.48;;;;;;;;;;10210543;29;20053;-81
2022/11/17 23:37:46;;;;;;;1.95;1.67;;;;;;;;;;10212218;29;20040;-81
2022/11/17 23:42:52;;;;;;;3.72;1.77;;;;;;;;;;10208511;29;20043;-81
2022/11/17 23:47:55;;;;;;;2.55;1.52;;;;;;;;;;10203708;29;20047;-81
2022/11/17 23:52:58;;;;;;;1.88;1.10;;;;;;;;;;10209187;29;20055;-81
2022/11/17 23:58:03;;;;;;;1.98;1.20;;;;;;;;;;10228044;29;20057;-81
